Time;durP1;ratioP1;P1;durP2;ratioP2;P2;SDS_P1;SDS_P2;PMS_P1;PMS_P2;Temp;Humidity;BMP_temperature;BMP_pressure;BME280_temperature;BME280_humidity;BME280_pressure;Samples;Min_cycle;Max_cycle;Signal;HPM_P1;HPM_P2
2021/05/24 00:01:30;;;;;;;;;;;19.70;53.00;;;;;;4975649;28;1906;-72
2021/05/24 00:03:56;;;;;;;;;;;19.70;53.00;;;;;;4975743;28;1029;-72
2021/05/24 00:06:21;;;;;;;;;;;19.70;53.10;;;;;;4975237;28;1094;-72
2021/05/24 00:08:46;;;;;;;;;;;19.70;53.20;;;;;;4974662;28;1196;-72
2021/05/24 00:11:12;;;;;;;;;;;19.70;53.20;;;;;;4975500;28;1172;-72
2021/05/24 00:13:44;;;;;;;;;;;19.70;53.20;;;;;;4975152;28;1096;-72
2021/05/24 00:16:10;;;;;;;;;;;19.70;53.30;;;;;;4960966;28;1651;-72
2021/05/24 00:18:35;;;;;;;;;;;19.70;53.30;;;;;;4974181;28;1085;-72
2021/05/24 00:21:01;;;;;;;;;;;19.70;53.40;;;;;;4974175;28;1907;-72
2021/05/24 00:23:26;;;;;;;;;;;19.70;53.50;;;;;;4975208;28;1155;-72
2021/05/24 00:25:52;;;;;;;;;;;19.70;53.50;;;;;;4974516;28;1136;-72
2021/05/24 00:28:17;;;;;;;;;;;19.70;53.50;;;;;;4965854;28;982;-72
2021/05/24 00:30:43;;;;;;;;;;;19.70;53.60;;;;;;4974269;28;1286;-72
2021/05/24 00:33:09;;;;;;;;;;;19.70;53.60;;;;;;4974117;28;1160;-72
2021/05/24 00:35:35;;;;;;;;;;;19.60;53.60;;;;;;4973756;28;1188;-72
2021/05/24 00:38:00;;;;;;;;;;;19.70;53.70;;;;;;4973650;28;1086;-72
2021/05/24 00:40:26;;;;;;;;;;;19.70;53.80;;;;;;4974772;28;1253;-72
2021/05/24 00:42:51;;;;;;;;;;;19.70;53.80;;;;;;4975146;28;1902;-72
2021/05/24 00:45:16;;;;;;;;;;;19.60;53.80;;;;;;4972985;28;1161;-72
2021/05/24 00:47:42;;;;;;;;;;;19.60;53.80;;;;;;4973672;28;1548;-72
2021/05/24 00:50:08;;;;;;;;;;;19.60;53.90;;;;;;4973135;28;1233;-72
2021/05/24 00:52:33;;;;;;;;;;;19.60;54.00;;;;;;4974357;28;1057;-72
2021/05/24 00:54:58;;;;;;;;;;;19.70;54.00;;;;;;4973046;28;1133;-72
2021/05/24 00:57:24;;;;;;;;;;;19.70;54.10;;;;;;4974573;28;1123;-72
2021/05/24 00:59:49;;;;;;;;;;;19.60;54.00;;;;;;4974042;28;1248;-72
2021/05/24 01:02:15;;;;;;;;;;;19.60;54.00;;;;;;4974452;28;1910;-71
2021/05/24 01:04:40;;;;;;;;;;;19.60;54.10;;;;;;4974157;28;986;-72
2021/05/24 01:07:05;;;;;;;;;;;19.60;54.20;;;;;;4974598;28;1045;-72
2021/05/24 01:09:31;;;;;;;;;;;19.60;54.20;;;;;;4974459;28;1235;-72
2021/05/24 01:11:56;;;;;;;;;;;19.60;54.20;;;;;;4974060;28;1092;-72
2021/05/24 01:14:22;;;;;;;;;;;19.60;54.30;;;;;;4973872;28;1100;-72
2021/05/24 01:16:49;;;;;;;;;;;19.60;54.30;;;;;;4974165;28;1064;-72
2021/05/24 01:19:14;;;;;;;;;;;19.60;54.30;;;;;;4973876;28;1285;-72
2021/05/24 01:21:40;;;;;;;;;;;19.60;54.40;;;;;;4969530;28;1895;-72
2021/05/24 01:24:05;;;;;;;;;;;19.60;54.40;;;;;;4972839;28;1137;-72
2021/05/24 01:26:31;;;;;;;;;;;19.60;54.40;;;;;;4972613;28;1270;-72
2021/05/24 01:28:56;;;;;;;;;;;19.60;54.50;;;;;;4973538;28;1226;-72
2021/05/24 01:31:22;;;;;;;;;;;19.60;54.60;;;;;;4974103;28;1084;-72
2021/05/24 01:33:47;;;;;;;;;;;19.60;54.60;;;;;;4972879;28;1113;-72
2021/05/24 01:36:12;;;;;;;;;;;19.60;54.60;;;;;;4973337;28;1065;-72
2021/05/24 01:38:39;;;;;;;;;;;19.60;54.70;;;;;;4972419;28;1038;-72
2021/05/24 01:41:07;;;;;;;;;;;19.60;54.70;;;;;;4974121;28;1981;-72
2021/05/24 01:43:33;;;;;;;;;;;19.60;54.70;;;;;;4973431;28;1220;-72
2021/05/24 01:45:58;;;;;;;;;;;19.60;54.70;;;;;;4973244;28;1053;-72
2021/05/24 01:48:24;;;;;;;;;;;19.60;54.80;;;;;;4972860;28;1042;-72
2021/05/24 01:50:49;;;;;;;;;;;19.60;54.80;;;;;;4972828;28;1284;-72
2021/05/24 01:53:15;;;;;;;;;;;19.60;54.80;;;;;;4972331;28;1149;-72
2021/05/24 01:55:40;;;;;;;;;;;19.60;54.90;;;;;;4972732;28;1097;-72
2021/05/24 01:58:06;;;;;;;;;;;19.60;54.90;;;;;;4973724;28;1120;-72
2021/05/24 02:00:31;;;;;;;;;;;19.60;54.90;;;;;;4973271;28;1169;-72
2021/05/24 02:02:56;;;;;;;;;;;19.60;55.00;;;;;;4973745;28;1957;-72
2021/05/24 02:05:23;;;;;;;;;;;19.60;55.60;;;;;;4971116;28;1074;-72
2021/05/24 02:07:48;;;;;;;;;;;19.60;55.00;;;;;;4972429;28;1098;-72
2021/05/24 02:10:15;;;;;;;;;;;19.60;55.10;;;;;;4973342;28;1215;-72
2021/05/24 02:12:41;;;;;;;;;;;19.60;55.10;;;;;;4971915;28;1089;-72
2021/05/24 02:15:06;;;;;;;;;;;19.60;55.10;;;;;;4973089;28;1189;-72
2021/05/24 02:17:32;;;;;;;;;;;19.60;55.10;;;;;;4973468;28;1181;-72
2021/05/24 02:19:58;;;;;;;;;;;19.60;55.20;;;;;;4970677;28;1287;-72
2021/05/24 02:22:23;;;;;;;;;;;19.60;55.20;;;;;;4970076;28;1910;-72
2021/05/24 02:24:48;;;;;;;;;;;19.60;55.20;;;;;;4972884;28;1076;-71
2021/05/24 02:27:14;;;;;;;;;;;19.60;55.30;;;;;;4973408;28;1084;-72
2021/05/24 02:29:41;;;;;;;;;;;19.60;55.30;;;;;;4973730;28;1284;-73
2021/05/24 02:32:06;;;;;;;;;;;19.60;55.40;;;;;;4973632;28;1167;-73
2021/05/24 02:34:31;;;;;;;;;;;19.60;55.40;;;;;;4972938;28;1128;-73
2021/05/24 02:36:57;;;;;;;;;;;19.60;55.40;;;;;;4972679;28;1129;-73
2021/05/24 02:39:22;;;;;;;;;;;19.60;55.40;;;;;;4971992;28;1349;-73
2021/05/24 02:41:48;;;;;;;;;;;19.60;55.40;;;;;;4971722;28;1934;-73
2021/05/24 02:44:13;;;;;;;;;;;19.60;55.50;;;;;;4972011;28;1086;-73
2021/05/24 02:46:39;;;;;;;;;;;19.60;55.50;;;;;;4972379;28;1214;-73
2021/05/24 02:49:04;;;;;;;;;;;19.60;55.50;;;;;;4973207;28;1218;-73
2021/05/24 02:51:30;;;;;;;;;;;19.60;55.50;;;;;;4973196;28;1253;-73
2021/05/24 02:53:55;;;;;;;;;;;19.60;55.60;;;;;;4973640;28;1191;-73
2021/05/24 02:56:20;;;;;;;;;;;19.60;55.60;;;;;;4972539;28;1025;-73
2021/05/24 02:58:46;;;;;;;;;;;19.60;55.60;;;;;;4972980;28;1433;-73
2021/05/24 03:01:12;;;;;;;;;;;19.60;55.60;;;;;;4972821;28;1953;-73
2021/05/24 03:03:40;;;;;;;;;;;19.60;55.60;;;;;;4973314;28;1073;-73
2021/05/24 03:06:05;;;;;;;;;;;19.60;55.70;;;;;;4972477;28;1311;-73
2021/05/24 03:08:31;;;;;;;;;;;19.60;55.70;;;;;;4973186;28;1120;-73
2021/05/24 03:10:56;;;;;;;;;;;19.60;55.80;;;;;;4972822;28;1185;-73
2021/05/24 03:13:25;;;;;;;;;;;19.60;55.80;;;;;;4973327;28;1049;-73
2021/05/24 03:15:51;;;;;;;;;;;19.60;55.80;;;;;;4970917;28;1310;-73
2021/05/24 03:18:16;;;;;;;;;;;19.60;55.80;;;;;;4976288;28;1093;-73
2021/05/24 03:20:41;;;;;;;;;;;19.60;55.90;;;;;;4971657;28;1249;-72
2021/05/24 03:23:07;;;;;;;;;;;19.60;55.90;;;;;;4976575;28;1953;-73
2021/05/24 03:25:32;;;;;;;;;;;19.60;55.90;;;;;;4975092;28;1057;-73
2021/05/24 03:27:58;;;;;;;;;;;19.60;55.90;;;;;;4976320;28;1061;-73
2021/05/24 03:30:23;;;;;;;;;;;19.60;55.90;;;;;;4975963;28;1213;-72
2021/05/24 03:32:49;;;;;;;;;;;19.60;56.00;;;;;;4976421;28;1124;-73
2021/05/24 03:35:14;;;;;;;;;;;19.60;56.00;;;;;;4976085;28;1093;-73
2021/05/24 03:37:39;;;;;;;;;;;19.60;55.90;;;;;;4976102;28;1073;-73
2021/05/24 03:40:05;;;;;;;;;;;19.60;55.60;;;;;;4975747;28;1358;-73
2021/05/24 03:42:31;;;;;;;;;;;19.60;55.70;;;;;;4974721;28;1914;-73
2021/05/24 03:44:56;;;;;;;;;;;19.60;55.80;;;;;;4974113;28;1109;-73
2021/05/24 03:47:21;;;;;;;;;;;19.70;55.80;;;;;;4976132;28;1064;-73
2021/05/24 03:49:47;;;;;;;;;;;19.80;55.70;;;;;;4975980;28;1271;-73
2021/05/24 03:52:13;;;;;;;;;;;19.80;55.60;;;;;;4976089;28;1100;-73
2021/05/24 03:54:38;;;;;;;;;;;19.90;55.40;;;;;;4973413;28;1129;-73
2021/05/24 03:57:05;;;;;;;;;;;20.00;55.30;;;;;;4976216;28;1077;-73
2021/05/24 03:59:30;;;;;;;;;;;20.10;55.10;;;;;;4975533;28;1378;-73
2021/05/24 04:01:55;;;;;;;;;;;20.20;54.90;;;;;;4975785;28;1902;-73
2021/05/24 04:04:21;;;;;;;;;;;20.30;54.70;;;;;;4975152;28;1179;-73
2021/05/24 04:06:52;;;;;;;;;;;20.40;54.50;;;;;;4975353;28;1092;-73
2021/05/24 04:09:18;;;;;;;;;;;20.50;54.40;;;;;;4975266;28;1364;-73
2021/05/24 04:11:43;;;;;;;;;;;20.60;54.30;;;;;;4975835;28;1435;-72
2021/05/24 04:14:09;;;;;;;;;;;20.70;54.10;;;;;;4975375;28;1084;-72
2021/05/24 04:16:35;;;;;;;;;;;20.70;53.90;;;;;;4975035;28;1096;-72
2021/05/24 04:19:06;;;;;;;;;;;20.80;53.90;;;;;;4975269;28;1255;-73
2021/05/24 04:21:31;;;;;;;;;;;20.80;53.80;;;;;;4970595;28;1969;-73
2021/05/24 04:23:57;;;;;;;;;;;20.90;53.70;;;;;;4974768;28;1184;-72
2021/05/24 04:26:22;;;;;;;;;;;20.90;53.60;;;;;;4974673;28;1139;-73
2021/05/24 04:28:47;;;;;;;;;;;21.00;53.50;;;;;;4972925;28;1704;-73
2021/05/24 04:31:13;;;;;;;;;;;21.00;53.50;;;;;;4975070;28;1140;-73
2021/05/24 04:33:38;;;;;;;;;;;21.00;53.40;;;;;;4975078;28;1096;-72
2021/05/24 04:36:04;;;;;;;;;;;21.10;53.40;;;;;;4974308;28;1077;-73
2021/05/24 04:38:29;;;;;;;;;;;21.10;53.30;;;;;;4974800;28;1073;-73
2021/05/24 04:40:55;;;;;;;;;;;21.20;53.30;;;;;;4974902;28;1977;-72
2021/05/24 04:43:26;;;;;;;;;;;21.20;53.20;;;;;;4973914;28;1108;-72
2021/05/24 04:45:51;;;;;;;;;;;21.20;53.20;;;;;;4974648;28;1103;-72
2021/05/24 04:48:17;;;;;;;;;;;21.20;53.10;;;;;;4975009;28;1192;-72
2021/05/24 04:50:42;;;;;;;;;;;21.30;53.10;;;;;;4975195;28;1216;-73
2021/05/24 04:53:08;;;;;;;;;;;21.30;53.10;;;;;;4974645;28;1128;-72
2021/05/24 04:55:33;;;;;;;;;;;21.30;53.10;;;;;;4974181;28;1049;-72
2021/05/24 04:57:59;;;;;;;;;;;21.30;53.00;;;;;;4974441;28;1073;-73
2021/05/24 05:00:24;;;;;;;;;;;21.30;53.00;;;;;;4974256;28;1286;-73
2021/05/24 05:02:49;;;;;;;;;;;21.40;53.10;;;;;;4974017;28;1890;-73
2021/05/24 05:05:15;;;;;;;;;;;21.40;53.10;;;;;;4974169;28;1096;-73
2021/05/24 05:07:40;;;;;;;;;;;21.40;53.40;;;;;;4972865;28;1050;-74
2021/05/24 05:10:06;;;;;;;;;;;21.40;52.80;;;;;;4974681;28;1204;-73
2021/05/24 05:12:32;;;;;;;;;;;21.30;52.40;;;;;;4973116;28;1078;-73
2021/05/24 05:14:58;;;;;;;;;;;21.30;52.20;;;;;;4973931;28;1186;-73
2021/05/24 05:17:24;;;;;;;;;;;21.20;52.20;;;;;;4956385;28;1847;-70
2021/05/24 05:19:49;;;;;;;;;;;21.20;52.30;;;;;;4964283;28;2250;-71
2021/05/24 05:22:14;;;;;;;;;;;21.20;52.20;;;;;;4963672;28;1965;-71
2021/05/24 05:24:40;;;;;;;;;;;21.10;52.10;;;;;;4962133;28;1124;-71
2021/05/24 05:27:05;;;;;;;;;;;21.10;51.90;;;;;;4971997;28;1168;-70
2021/05/24 05:29:31;;;;;;;;;;;21.00;51.90;;;;;;4971611;28;1327;-70
2021/05/24 05:31:56;;;;;;;;;;;21.00;51.80;;;;;;4972015;28;1077;-70
2021/05/24 05:34:22;;;;;;;;;;;21.00;51.70;;;;;;4972339;28;1060;-69
2021/05/24 05:36:47;;;;;;;;;;;20.90;51.60;;;;;;4972317;28;965;-70
2021/05/24 05:39:13;;;;;;;;;;;20.90;51.50;;;;;;4972695;28;1378;-72
2021/05/24 05:41:38;;;;;;;;;;;20.90;51.60;;;;;;4971347;28;1946;-72
2021/05/24 05:44:04;;;;;;;;;;;20.90;51.60;;;;;;4972920;28;1092;-72
2021/05/24 05:46:29;;;;;;;;;;;20.80;51.30;;;;;;4969352;28;1093;-72
2021/05/24 05:48:55;;;;;;;;;;;20.80;51.60;;;;;;4971871;28;1293;-72
2021/05/24 05:51:20;;;;;;;;;;;20.80;51.60;;;;;;4973544;28;1117;-71
2021/05/24 05:53:46;;;;;;;;;;;20.70;51.50;;;;;;4974143;28;1026;-72
2021/05/24 05:56:11;;;;;;;;;;;20.70;51.50;;;;;;4973396;28;1124;-71
2021/05/24 05:58:37;;;;;;;;;;;20.70;51.40;;;;;;4972876;28;1089;-72
2021/05/24 06:01:04;;;;;;;;;;;20.70;51.50;;;;;;4972976;28;1895;-71
2021/05/24 06:03:30;;;;;;;;;;;20.70;51.30;;;;;;4973227;28;1093;-71
2021/05/24 06:05:55;;;;;;;;;;;20.70;51.40;;;;;;4971546;28;1132;-72
2021/05/24 06:08:21;;;;;;;;;;;20.70;51.40;;;;;;4972525;28;1061;-71
2021/05/24 06:10:46;;;;;;;;;;;20.60;51.30;;;;;;4968701;28;1887;-72
2021/05/24 06:13:11;;;;;;;;;;;20.60;51.30;;;;;;4964845;28;1123;-72
2021/05/24 06:15:37;;;;;;;;;;;20.60;51.30;;;;;;4967558;28;1168;-72
2021/05/24 06:18:02;;;;;;;;;;;20.60;51.30;;;;;;4957932;28;1153;-72
2021/05/24 06:20:28;;;;;;;;;;;20.60;51.30;;;;;;4964273;28;1260;-72
2021/05/24 06:22:53;;;;;;;;;;;20.60;51.30;;;;;;4973359;28;1899;-72
2021/05/24 06:25:19;;;;;;;;;;;20.50;51.30;;;;;;4972702;28;1065;-72
2021/05/24 06:27:44;;;;;;;;;;;20.50;51.20;;;;;;4973598;28;1081;-72
2021/05/24 06:30:10;;;;;;;;;;;20.50;51.20;;;;;;4972930;28;1244;-72
2021/05/24 06:32:35;;;;;;;;;;;20.50;51.30;;;;;;4972269;28;1073;-72
2021/05/24 06:35:01;;;;;;;;;;;20.50;51.20;;;;;;4972645;28;1108;-71
2021/05/24 06:37:27;;;;;;;;;;;20.50;51.20;;;;;;4973349;28;1143;-72
2021/05/24 06:39:52;;;;;;;;;;;20.40;51.20;;;;;;4972942;28;1360;-72
2021/05/24 06:42:17;;;;;;;;;;;20.40;51.00;;;;;;4972277;28;1914;-72
2021/05/24 06:44:43;;;;;;;;;;;20.40;51.00;;;;;;4972286;28;1096;-73
2021/05/24 06:47:08;;;;;;;;;;;20.40;51.10;;;;;;4973318;28;1077;-73
2021/05/24 06:49:35;;;;;;;;;;;20.40;51.20;;;;;;4972799;28;1257;-73
2021/05/24 06:52:03;;;;;;;;;;;20.40;51.30;;;;;;4975569;28;1140;-73
2021/05/24 06:54:29;;;;;;;;;;;20.40;51.40;;;;;;4976858;28;1105;-72
2021/05/24 06:56:54;;;;;;;;;;;20.40;51.50;;;;;;4976961;28;1017;-72
2021/05/24 06:59:20;;;;;;;;;;;20.40;51.40;;;;;;4976874;28;1291;-71
2021/05/24 07:01:45;;;;;;;;;;;20.40;51.30;;;;;;4977109;28;2123;-72
2021/05/24 07:04:11;;;;;;;;;;;20.40;51.40;;;;;;4968304;28;1878;-71
2021/05/24 07:06:36;;;;;;;;;;;20.30;51.00;;;;;;4970338;28;1107;-71
2021/05/24 07:09:02;;;;;;;;;;;20.30;50.80;;;;;;4977781;28;1384;-71
2021/05/24 07:11:27;;;;;;;;;;;20.30;51.00;;;;;;4976516;28;1289;-71
2021/05/24 07:13:53;;;;;;;;;;;20.30;51.00;;;;;;5002085;28;1345;-71
2021/05/24 07:16:18;;;;;;;;;;;20.30;51.10;;;;;;4984431;28;1281;-71
2021/05/24 07:18:44;;;;;;;;;;;20.30;51.20;;;;;;4982417;28;1375;-71
2021/05/24 07:21:09;;;;;;;;;;;20.40;51.40;;;;;;4979200;28;1930;-71
2021/05/24 07:23:35;;;;;;;;;;;20.30;51.50;;;;;;4982235;28;1360;-71
2021/05/24 07:26:00;;;;;;;;;;;20.30;52.10;;;;;;4981611;28;1379;-71
2021/05/24 07:28:26;;;;;;;;;;;20.40;53.00;;;;;;4981836;28;1300;-71
2021/05/24 07:30:51;;;;;;;;;;;20.40;53.00;;;;;;4983964;28;1285;-71
2021/05/24 07:33:17;;;;;;;;;;;20.40;53.10;;;;;;4984347;28;1280;-71
2021/05/24 07:35:43;;;;;;;;;;;20.40;53.40;;;;;;4973528;28;1097;-71
2021/05/24 07:38:09;;;;;;;;;;;20.40;53.30;;;;;;4975572;28;1101;-70
2021/05/24 07:40:35;;;;;;;;;;;20.40;53.50;;;;;;4975830;28;1214;-71
2021/05/24 07:43:00;;;;;;;;;;;20.40;53.70;;;;;;4974460;28;1910;-70
2021/05/24 07:45:25;;;;;;;;;;;20.40;53.80;;;;;;4971927;28;1931;-70
2021/05/24 07:47:51;;;;;;;;;;;20.40;53.90;;;;;;4972178;28;1079;-70
2021/05/24 07:50:16;;;;;;;;;;;20.40;54.00;;;;;;4966932;28;1282;-70
2021/05/24 07:52:42;;;;;;;;;;;20.40;54.10;;;;;;4974204;28;1089;-71
2021/05/24 07:55:07;;;;;;;;;;;20.40;54.20;;;;;;4975040;28;1168;-70
2021/05/24 07:57:35;;;;;;;;;;;20.40;54.40;;;;;;4975383;28;1038;-70
2021/05/24 08:00:00;;;;;;;;;;;20.40;54.60;;;;;;4975450;28;1228;-71
2021/05/24 08:02:26;;;;;;;;;;;20.40;54.80;;;;;;4973200;28;1911;-71
2021/05/24 08:04:51;;;;;;;;;;;20.40;55.00;;;;;;4975345;28;1073;-71
2021/05/24 08:07:18;;;;;;;;;;;20.40;55.20;;;;;;4975411;28;1167;-70
2021/05/24 08:09:44;;;;;;;;;;;20.40;55.40;;;;;;4975655;28;1213;-70
2021/05/24 08:12:11;;;;;;;;;;;20.40;55.60;;;;;;4975482;28;1065;-71
2021/05/24 08:14:36;;;;;;;;;;;20.40;55.80;;;;;;4975021;28;1171;-71
2021/05/24 08:17:01;;;;;;;;;;;20.40;56.00;;;;;;4973764;28;1132;-71
2021/05/24 08:19:27;;;;;;;;;;;20.40;56.20;;;;;;4974833;28;1279;-71
2021/05/24 08:21:52;;;;;;;;;;;20.40;56.40;;;;;;4969853;28;1903;-70
2021/05/24 08:24:18;;;;;;;;;;;20.40;56.50;;;;;;4974628;28;1221;-71
2021/05/24 08:26:44;;;;;;;;;;;20.40;56.70;;;;;;4973488;28;1141;-71
2021/05/24 08:29:09;;;;;;;;;;;20.40;57.20;;;;;;4964160;28;1212;-71
2021/05/24 08:31:35;;;;;;;;;;;20.40;57.10;;;;;;4974198;28;1073;-70
2021/05/24 08:34:00;;;;;;;;;;;20.40;57.10;;;;;;4974073;28;1050;-71
2021/05/24 08:36:25;;;;;;;;;;;20.40;57.00;;;;;;4974164;28;1135;-71
2021/05/24 08:38:51;;;;;;;;;;;20.40;57.00;;;;;;4973545;28;1374;-70
2021/05/24 08:41:17;;;;;;;;;;;20.40;56.90;;;;;;4975236;28;1915;-71
2021/05/24 08:43:42;;;;;;;;;;;20.40;56.90;;;;;;4973515;28;1121;-70
2021/05/24 08:46:07;;;;;;;;;;;20.40;56.90;;;;;;4973127;28;1085;-71
2021/05/24 08:48:33;;;;;;;;;;;20.40;56.90;;;;;;4974396;28;1064;-70
2021/05/24 08:50:58;;;;;;;;;;;20.40;56.90;;;;;;4974172;28;2093;-71
2021/05/24 08:53:24;;;;;;;;;;;20.40;57.00;;;;;;4969202;28;1258;-70
2021/05/24 08:55:49;;;;;;;;;;;20.40;57.10;;;;;;4974080;28;1159;-71
2021/05/24 08:58:15;;;;;;;;;;;20.40;57.00;;;;;;4986085;28;1184;-70
2021/05/24 09:00:40;;;;;;;;;;;20.40;57.00;;;;;;4968967;28;1217;-70
2021/05/24 09:03:14;;;;;;;;;;;20.40;57.00;;;;;;4973355;28;1902;-71
2021/05/24 09:05:39;;;;;;;;;;;20.40;57.10;;;;;;4974035;28;1116;-71
2021/05/24 09:08:06;;;;;;;;;;;20.40;57.30;;;;;;4973231;28;1476;-70
2021/05/24 09:10:35;;;;;;;;;;;20.40;57.30;;;;;;4974814;28;1224;-70
2021/05/24 09:13:01;;;;;;;;;;;20.40;57.30;;;;;;4974307;28;1060;-71
2021/05/24 09:15:26;;;;;;;;;;;20.40;57.30;;;;;;4972226;28;1351;-71
2021/05/24 09:17:55;;;;;;;;;;;20.40;57.30;;;;;;4967400;28;1233;-71
2021/05/24 09:20:24;;;;;;;;;;;20.40;57.20;;;;;;4968138;28;1418;-71
2021/05/24 09:23:08;;;;;;;;;;;20.50;57.30;;;;;;4973711;28;1902;-71
2021/05/24 09:25:49;;;;;;;;;;;20.40;57.30;;;;;;4973488;28;1092;-70
2021/05/24 09:28:34;;;;;;;;;;;20.40;57.30;;;;;;4974292;28;1117;-70
2021/05/24 09:31:00;;;;;;;;;;;20.40;57.30;;;;;;4962702;28;1340;-71
2021/05/24 09:33:26;;;;;;;;;;;20.40;57.30;;;;;;4971445;28;1065;-70
2021/05/24 09:35:51;;;;;;;;;;;20.40;57.40;;;;;;4972282;28;1124;-71
2021/05/24 09:38:18;;;;;;;;;;;20.40;57.40;;;;;;4972670;28;1101;-71
2021/05/24 09:40:49;;;;;;;;;;;20.40;57.40;;;;;;4973847;28;1318;-70
2021/05/24 09:43:14;;;;;;;;;;;20.40;57.60;;;;;;4974165;28;1906;-70
2021/05/24 09:45:40;;;;;;;;;;;20.40;57.60;;;;;;4973881;28;932;-70
2021/05/24 09:48:05;;;;;;;;;;;20.40;57.60;;;;;;4973750;28;1101;-71
2021/05/24 09:50:31;;;;;;;;;;;20.40;57.60;;;;;;4973938;28;1212;-70
2021/05/24 09:52:56;;;;;;;;;;;20.40;57.70;;;;;;4973722;28;1107;-70
2021/05/24 09:55:22;;;;;;;;;;;20.40;57.70;;;;;;4972538;28;1120;-71
2021/05/24 09:57:56;;;;;;;;;;;20.40;57.80;;;;;;4973960;28;1092;-71
2021/05/24 10:00:25;;;;;;;;;;;20.40;57.90;;;;;;4973403;28;1209;-71
2021/05/24 10:02:52;;;;;;;;;;;20.40;57.90;;;;;;4972188;28;1898;-71
2021/05/24 10:05:17;;;;;;;;;;;20.40;58.10;;;;;;4973026;28;1173;-71
2021/05/24 10:07:43;;;;;;;;;;;20.40;58.00;;;;;;4973740;28;1049;-70
2021/05/24 10:10:09;;;;;;;;;;;20.40;58.00;;;;;;4973463;28;1207;-71
2021/05/24 10:12:34;;;;;;;;;;;20.50;58.20;;;;;;4973470;28;1156;-71
2021/05/24 10:15:01;;;;;;;;;;;20.50;58.30;;;;;;4955173;28;1180;-71
2021/05/24 10:17:27;;;;;;;;;;;20.50;58.30;;;;;;4969153;28;1105;-71
2021/05/24 10:19:52;;;;;;;;;;;20.50;58.30;;;;;;4963007;28;1272;-71
2021/05/24 10:22:18;;;;;;;;;;;20.50;58.30;;;;;;4972335;28;1911;-71
2021/05/24 10:24:44;;;;;;;;;;;20.50;58.30;;;;;;4972097;28;1151;-71
2021/05/24 10:27:09;;;;;;;;;;;20.50;58.30;;;;;;4974510;28;1113;-71
2021/05/24 10:29:34;;;;;;;;;;;20.50;58.40;;;;;;4967417;28;1249;-71
2021/05/24 10:32:01;;;;;;;;;;;20.50;58.30;;;;;;4974557;28;2009;-70
2021/05/24 10:34:26;;;;;;;;;;;20.50;58.40;;;;;;4970305;28;986;-71
2021/05/24 10:37:07;;;;;;;;;;;20.50;58.40;;;;;;4972181;28;1076;-71
2021/05/24 10:39:50;;;;;;;;;;;20.40;58.40;;;;;;4975633;28;1397;-71
2021/05/24 10:42:15;;;;;;;;;;;20.40;58.50;;;;;;4975779;28;1911;-71
2021/05/24 10:44:43;;;;;;;;;;;20.50;58.50;;;;;;4975587;28;1069;-70
2021/05/24 10:47:14;;;;;;;;;;;20.40;58.50;;;;;;4975166;28;2257;-70
2021/05/24 10:50:12;;;;;;;;;;;20.40;58.50;;;;;;4976021;28;2017;-71
2021/05/24 10:52:38;;;;;;;;;;;20.40;58.60;;;;;;4958507;28;2083;-71
2021/05/24 10:55:22;;;;;;;;;;;20.40;58.60;;;;;;4966978;28;1288;-71
2021/05/24 10:58:03;;;;;;;;;;;20.40;58.60;;;;;;4958535;28;1089;-71
2021/05/24 11:00:48;;;;;;;;;;;20.40;58.60;;;;;;4967251;28;1287;-71
2021/05/24 11:03:14;;;;;;;;;;;20.40;58.60;;;;;;4960011;28;1960;-72
2021/05/24 11:05:39;;;;;;;;;;;20.40;58.60;;;;;;4958539;28;1700;-70
2021/05/24 11:08:07;;;;;;;;;;;20.40;58.70;;;;;;4962143;28;1708;-69
2021/05/24 11:10:50;;;;;;;;;;;20.40;58.70;;;;;;4973203;28;1404;-69
2021/05/24 11:13:17;;;;;;;;;;;20.40;58.70;;;;;;4966082;28;1240;-69
2021/05/24 11:15:46;;;;;;;;;;;20.40;58.80;;;;;;4970439;28;1171;-71
2021/05/24 11:18:21;;;;;;;;;;;20.40;58.80;;;;;;4956190;28;1100;-71
2021/05/24 11:20:52;;;;;;;;;;;20.40;58.80;;;;;;4971889;28;1377;-71
2021/05/24 11:26:14;;;;;;;;;;;20.40;58.90;;;;;;4973029;28;1208;-71
2021/05/24 11:28:44;;;;;;;;;;;20.40;58.90;;;;;;4961778;28;1127;-71
2021/05/24 11:31:11;;;;;;;;;;;20.40;59.10;;;;;;4973195;28;1471;-72
2021/05/24 11:33:36;;;;;;;;;;;20.40;59.10;;;;;;4973456;28;1053;-72
2021/05/24 11:36:02;;;;;;;;;;;20.40;59.00;;;;;;4974424;28;1596;-72
2021/05/24 11:38:28;;;;;;;;;;;20.40;59.00;;;;;;4973892;28;1108;-72
2021/05/24 11:41:07;;;;;;;;;;;20.40;59.10;;;;;;4974776;28;1209;-71
2021/05/24 11:43:32;;;;;;;;;;;20.40;59.10;;;;;;4972932;28;1954;-72
2021/05/24 11:45:58;;;;;;;;;;;20.40;59.10;;;;;;4973815;28;1151;-70
2021/05/24 11:48:33;;;;;;;;;;;20.40;59.20;;;;;;4974600;28;1148;-69
2021/05/24 11:50:58;;;;;;;;;;;20.40;59.20;;;;;;4974551;28;1243;-69
2021/05/24 11:53:24;;;;;;;;;;;20.40;59.20;;;;;;4973572;28;1143;-69
2021/05/24 11:55:50;;;;;;;;;;;20.40;59.20;;;;;;4974086;28;1120;-69
2021/05/24 11:58:16;;;;;;;;;;;20.30;59.20;;;;;;4973975;28;1388;-70
2021/05/24 12:00:42;;;;;;;;;;;20.40;59.30;;;;;;4973476;28;1393;-72
2021/05/24 12:03:08;;;;;;;;;;;20.40;59.30;;;;;;4973980;28;1942;-72
2021/05/24 12:05:33;;;;;;;;;;;20.40;59.20;;;;;;4974727;28;1619;-72
2021/05/24 12:07:59;;;;;;;;;;;20.40;58.90;;;;;;4974420;28;1203;-72
2021/05/24 12:10:25;;;;;;;;;;;20.40;56.30;;;;;;4975315;28;1218;-72
2021/05/24 12:12:51;;;;;;;;;;;20.40;52.90;;;;;;4970530;28;1972;-72
2021/05/24 12:15:16;;;;;;;;;;;20.40;54.00;;;;;;4973377;28;1238;-72
2021/05/24 12:17:42;;;;;;;;;;;20.30;51.40;;;;;;4967790;28;1163;-72
2021/05/24 12:20:09;;;;;;;;;;;20.40;50.50;;;;;;4972777;28;1302;-72
2021/05/24 12:22:35;;;;;;;;;;;20.30;47.90;;;;;;4969618;28;1914;-72
2021/05/24 12:25:01;;;;;;;;;;;20.30;50.20;;;;;;4971102;28;1182;-72
2021/05/24 12:27:26;;;;;;;;;;;20.30;51.70;;;;;;4972667;28;1121;-72
2021/05/24 12:30:08;;;;;;;;;;;20.30;50.20;;;;;;4965401;28;2085;-70
2021/05/24 12:32:37;;;;;;;;;;;20.30;48.30;;;;;;4966433;28;1487;-70
2021/05/24 12:35:10;;;;;;;;;;;20.40;46.40;;;;;;4962812;28;1311;-69
2021/05/24 12:37:36;;;;;;;;;;;20.40;45.40;;;;;;4974076;28;1129;-70
2021/05/24 12:40:08;;;;;;;;;;;20.40;45.00;;;;;;4975029;28;1292;-70
2021/05/24 12:42:33;;;;;;;;;;;20.40;43.30;;;;;;4973744;28;1906;-69
2021/05/24 12:45:02;;;;;;;;;;;20.40;43.30;;;;;;4972461;28;1160;-69
2021/05/24 12:47:28;;;;;;;;;;;20.40;42.00;;;;;;4970938;28;1961;-71
2021/05/24 12:49:56;;;;;;;;;;;20.40;42.20;;;;;;4963064;28;1854;-70
2021/05/24 12:52:22;;;;;;;;;;;20.40;43.70;;;;;;4972454;28;1312;-70
2021/05/24 12:54:48;;;;;;;;;;;20.40;42.50;;;;;;4973678;28;1336;-69
2021/05/24 12:57:14;;;;;;;;;;;20.40;42.90;;;;;;4972676;28;1046;-70
2021/05/24 12:59:44;;;;;;;;;;;20.40;40.70;;;;;;4972974;28;1257;-69
2021/05/24 13:02:09;;;;;;;;;;;20.40;39.70;;;;;;4972237;28;1903;-70
2021/05/24 13:04:35;;;;;;;;;;;20.40;39.90;;;;;;4980194;28;1074;-70
2021/05/24 13:07:01;;;;;;;;;;;20.40;40.70;;;;;;4976768;28;1473;-70
2021/05/24 13:09:27;;;;;;;;;;;20.40;41.50;;;;;;4973648;28;1273;-69
2021/05/24 13:11:58;;;;;;;;;;;20.50;40.80;;;;;;4974104;28;1073;-70
2021/05/24 13:14:26;;;;;;;;;;;20.50;41.40;;;;;;4972859;28;1145;-69
2021/05/24 13:17:06;;;;;;;;;;;20.50;40.90;;;;;;4973483;28;1101;-69
2021/05/24 13:19:45;;;;;;;;;;;20.50;40.40;;;;;;4974565;28;1202;-69
2021/05/24 13:22:35;;;;;;;;;;;20.50;40.50;;;;;;4970888;28;1902;-69
2021/05/24 13:30:06;;;;;;;;;;;20.50;42.00;;;;;;4973972;28;1246;-70
2021/05/24 13:32:32;;;;;;;;;;;20.40;42.20;;;;;;4973582;28;1355;-69
2021/05/24 13:34:57;;;;;;;;;;;20.50;42.90;;;;;;4972496;28;1231;-70
2021/05/24 13:37:22;;;;;;;;;;;20.40;43.10;;;;;;4971846;28;1225;-69
2021/05/24 13:39:56;;;;;;;;;;;20.40;43.20;;;;;;4973483;28;1294;-70
2021/05/24 13:42:21;;;;;;;;;;;20.40;42.90;;;;;;4970135;28;1960;-69
2021/05/24 13:44:47;;;;;;;;;;;20.40;43.00;;;;;;4973495;28;1192;-70
2021/05/24 13:47:12;;;;;;;;;;;20.40;42.60;;;;;;4972382;28;1217;-69
2021/05/24 13:49:38;;;;;;;;;;;20.40;43.10;;;;;;4996016;28;1413;-69
2021/05/24 13:52:03;;;;;;;;;;;20.40;43.70;;;;;;4972951;28;1209;-69
2021/05/24 13:54:29;;;;;;;;;;;20.40;43.20;;;;;;4972404;28;1332;-70
2021/05/24 13:56:54;;;;;;;;;;;20.40;44.00;;;;;;4970462;28;1543;-72
2021/05/24 13:59:19;;;;;;;;;;;20.40;43.60;;;;;;4983444;28;1341;-70
2021/05/24 14:01:45;;;;;;;;;;;20.40;43.20;;;;;;4968694;28;1903;-71
2021/05/24 14:04:12;;;;;;;;;;;20.40;44.30;;;;;;4954829;28;1464;-69
2021/05/24 14:06:37;;;;;;;;;;;20.40;44.60;;;;;;4954152;28;1428;-73
2021/05/24 14:09:03;;;;;;;;;;;20.30;44.60;;;;;;4972793;28;1685;-72
2021/05/24 14:11:28;;;;;;;;;;;20.30;44.40;;;;;;4971373;28;1105;-68
2021/05/24 14:13:54;;;;;;;;;;;20.40;43.80;;;;;;4972540;28;1247;-70
2021/05/24 14:16:19;;;;;;;;;;;20.30;43.70;;;;;;4972700;28;1037;-70
2021/05/24 14:18:48;;;;;;;;;;;20.30;43.50;;;;;;4972268;28;1208;-69
2021/05/24 14:21:14;;;;;;;;;;;20.30;42.60;;;;;;4967420;28;1104;-69
2021/05/24 14:23:39;;;;;;;;;;;20.30;42.60;;;;;;4972639;28;1961;-70
2021/05/24 14:26:05;;;;;;;;;;;20.30;42.60;;;;;;4971710;28;1120;-70
2021/05/24 14:28:30;;;;;;;;;;;20.30;42.50;;;;;;4972131;28;1109;-69
2021/05/24 14:30:59;;;;;;;;;;;20.30;42.50;;;;;;4973051;28;1329;-70
2021/05/24 14:33:24;;;;;;;;;;;20.30;42.40;;;;;;4972383;28;1073;-69
2021/05/24 14:35:50;;;;;;;;;;;20.30;42.60;;;;;;4965218;28;1547;-69